sensor_id;sensor_type;location;lat;lon;timestamp;pressure;altitude;pressure_sealevel;temperature;humidity
29935;BME280;19905;53.370;-6.314;2022-11-14T00:00:26;100407.44;;;12.26;100.00
29935;BME280;19905;53.370;-6.314;2022-11-14T00:02:59;100404.78;;;12.26;100.00
29935;BME280;19905;53.370;-6.314;2022-11-14T00:05:28;100406.72;;;12.14;100.00
29935;BME280;19905;53.370;-6.314;2022-11-14T00:08:14;100400.03;;;12.10;100.00
29935;BME280;19905;53.370;-6.314;2022-11-14T00:10:50;100407.69;;;12.13;100.00
29935;BME280;19905;53.370;-6.314;2022-11-14T00:13:19;100398.72;;;12.05;100.00
29935;BME280;19905;53.370;-6.314;2022-11-14T00:15:51;100398.69;;;11.95;100.00
29935;BME280;19905;53.370;-6.314;2022-11-14T00:18:22;100397.56;;;11.88;100.00
29935;BME280;19905;53.370;-6.314;2022-11-14T00:20:52;100395.19;;;11.85;100.00
29935;BME280;19905;53.370;-6.314;2022-11-14T00:23:21;100406.13;;;11.80;100.00
29935;BME280;19905;53.370;-6.314;2022-11-14T00:25:50;100409.44;;;11.73;100.00
29935;BME280;19905;53.370;-6.314;2022-11-14T00:28:18;100401.50;;;11.73;100.00
29935;BME280;19905;53.370;-6.314;2022-11-14T00:30:47;100405.50;;;11.67;100.00
29935;BME280;19905;53.370;-6.314;2022-11-14T00:33:18;100406.88;;;11.61;100.00
29935;BME280;19905;53.370;-6.314;2022-11-14T00:40:04;100401.09;;;11.47;100.00
29935;BME280;19905;53.370;-6.314;2022-11-14T00:42:53;100406.09;;;11.50;100.00
29935;BME280;19905;53.370;-6.314;2022-11-14T00:48:42;100404.38;;;11.39;100.00
29935;BME280;19905;53.370;-6.314;2022-11-14T00:52:06;100415.59;;;11.31;100.00
29935;BME280;19905;53.370;-6.314;2022-11-14T00:54:35;100410.69;;;11.27;100.00
29935;BME280;19905;53.370;-6.314;2022-11-14T00:57:05;100400.72;;;11.30;100.00
29935;BME280;19905;53.370;-6.314;2022-11-14T00:59:39;100400.13;;;11.27;100.00
29935;BME280;19905;53.370;-6.314;2022-11-14T01:02:21;100401.47;;;11.21;100.00
29935;BME280;19905;53.370;-6.314;2022-11-14T01:05:07;100388.66;;;11.16;100.00
29935;BME280;19905;53.370;-6.314;2022-11-14T01:07:53;100376.41;;;11.15;100.00
29935;BME280;19905;53.370;-6.314;2022-11-14T01:10:40;100362.94;;;11.18;100.00
29935;BME280;19905;53.370;-6.314;2022-11-14T01:13:11;100372.41;;;11.21;100.00
29935;BME280;19905;53.370;-6.314;2022-11-14T01:15:44;100369.56;;;11.13;100.00
29935;BME280;19905;53.370;-6.314;2022-11-14T01:18:15;100374.53;;;11.06;100.00
29935;BME280;19905;53.370;-6.314;2022-11-14T01:20:47;100370.81;;;11.09;100.00
29935;BME280;19905;53.370;-6.314;2022-11-14T01:23:18;100387.50;;;11.09;100.00
29935;BME280;19905;53.370;-6.314;2022-11-14T01:25:47;100387.88;;;11.05;100.00
29935;BME280;19905;53.370;-6.314;2022-11-14T01:28:17;100376.47;;;11.04;100.00
29935;BME280;19905;53.370;-6.314;2022-11-14T01:30:46;100364.78;;;11.07;100.00
29935;BME280;19905;53.370;-6.314;2022-11-14T01:33:15;100377.75;;;11.10;100.00
29935;BME280;19905;53.370;-6.314;2022-11-14T01:35:47;100371.66;;;11.09;100.00
29935;BME280;19905;53.370;-6.314;2022-11-14T01:38:17;100361.97;;;11.19;100.00
29935;BME280;19905;53.370;-6.314;2022-11-14T01:40:45;100363.56;;;11.11;100.00
29935;BME280;19905;53.370;-6.314;2022-11-14T01:43:28;100353.69;;;11.13;100.00
29935;BME280;19905;53.370;-6.314;2022-11-14T01:46:02;100355.41;;;11.14;100.00
29935;BME280;19905;53.370;-6.314;2022-11-14T01:48:40;100350.94;;;11.14;100.00
29935;BME280;19905;53.370;-6.314;2022-11-14T01:51:27;100344.69;;;11.15;100.00
29935;BME280;19905;53.370;-6.314;2022-11-14T01:54:02;100351.00;;;11.24;100.00
29935;BME280;19905;53.370;-6.314;2022-11-14T01:56:34;100345.00;;;11.22;100.00
29935;BME280;19905;53.370;-6.314;2022-11-14T01:59:06;100341.41;;;11.23;100.00
29935;BME280;19905;53.370;-6.314;2022-11-14T02:01:40;100339.31;;;11.27;100.00
29935;BME280;19905;53.370;-6.314;2022-11-14T02:04:14;100329.72;;;11.26;100.00
29935;BME280;19905;53.370;-6.314;2022-11-14T02:06:48;100328.22;;;11.33;100.00
29935;BME280;19905;53.370;-6.314;2022-11-14T02:09:19;100317.25;;;11.37;100.00
29935;BME280;19905;53.370;-6.314;2022-11-14T02:11:52;100322.41;;;11.39;100.00
29935;BME280;19905;53.370;-6.314;2022-11-14T02:14:25;100317.56;;;11.44;100.00
29935;BME280;19905;53.370;-6.314;2022-11-14T02:16:56;100318.28;;;11.46;100.00
29935;BME280;19905;53.370;-6.314;2022-11-14T02:19:47;100310.78;;;11.51;100.00
29935;BME280;19905;53.370;-6.314;2022-11-14T02:22:19;100316.06;;;11.51;100.00
29935;BME280;19905;53.370;-6.314;2022-11-14T02:24:50;100318.00;;;11.49;100.00
29935;BME280;19905;53.370;-6.314;2022-11-14T02:27:19;100312.00;;;11.47;100.00
29935;BME280;19905;53.370;-6.314;2022-11-14T02:29:49;100313.38;;;11.41;100.00
29935;BME280;19905;53.370;-6.314;2022-11-14T02:32:17;100311.69;;;11.40;100.00
29935;BME280;19905;53.370;-6.314;2022-11-14T02:34:46;100301.97;;;11.41;100.00
29935;BME280;19905;53.370;-6.314;2022-11-14T02:37:15;100299.88;;;11.44;100.00
29935;BME280;19905;53.370;-6.314;2022-11-14T02:39:47;100296.28;;;11.45;100.00
29935;BME280;19905;53.370;-6.314;2022-11-14T02:42:16;100302.09;;;11.39;100.00
29935;BME280;19905;53.370;-6.314;2022-11-14T02:44:48;100294.94;;;11.30;100.00
29935;BME280;19905;53.370;-6.314;2022-11-14T02:47:17;100299.25;;;11.31;100.00
29935;BME280;19905;53.370;-6.314;2022-11-14T02:49:46;100303.84;;;11.29;100.00
29935;BME280;19905;53.370;-6.314;2022-11-14T02:52:21;100304.00;;;11.28;100.00
29935;BME280;19905;53.370;-6.314;2022-11-14T02:54:51;100306.78;;;11.36;100.00
29935;BME280;19905;53.370;-6.314;2022-11-14T02:57:22;100288.25;;;11.26;100.00
29935;BME280;19905;53.370;-6.314;2022-11-14T02:59:50;100286.31;;;11.28;100.00
29935;BME280;19905;53.370;-6.314;2022-11-14T03:02:19;100284.38;;;11.30;100.00
29935;BME280;19905;53.370;-6.314;2022-11-14T03:04:49;100279.81;;;11.32;100.00
29935;BME280;19905;53.370;-6.314;2022-11-14T03:07:18;100281.06;;;11.38;100.00
29935;BME280;19905;53.370;-6.314;2022-11-14T03:09:47;100268.69;;;11.38;100.00
29935;BME280;19905;53.370;-6.314;2022-11-14T03:12:18;100258.66;;;11.32;100.00
29935;BME280;19905;53.370;-6.314;2022-11-14T03:14:47;100257.81;;;11.32;100.00
29935;BME280;19905;53.370;-6.314;2022-11-14T03:17:17;100249.75;;;11.33;100.00
29935;BME280;19905;53.370;-6.314;2022-11-14T03:19:45;100251.00;;;11.39;100.00
29935;BME280;19905;53.370;-6.314;2022-11-14T03:22:14;100250.84;;;11.40;100.00
29935;BME280;19905;53.370;-6.314;2022-11-14T03:24:43;100249.47;;;11.36;100.00
29935;BME280;19905;53.370;-6.314;2022-11-14T03:27:12;100261.59;;;11.39;100.00
29935;BME280;19905;53.370;-6.314;2022-11-14T03:29:43;100259.09;;;11.37;100.00
29935;BME280;19905;53.370;-6.314;2022-11-14T03:32:12;100260.47;;;11.32;100.00
29935;BME280;19905;53.370;-6.314;2022-11-14T03:34:41;100257.25;;;11.28;100.00
29935;BME280;19905;53.370;-6.314;2022-11-14T03:37:10;100253.00;;;11.16;100.00
29935;BME280;19905;53.370;-6.314;2022-11-14T03:39:39;100250.28;;;11.27;100.00
29935;BME280;19905;53.370;-6.314;2022-11-14T03:42:09;100246.78;;;11.27;100.00
29935;BME280;19905;53.370;-6.314;2022-11-14T03:44:37;100237.75;;;11.29;100.00
29935;BME280;19905;53.370;-6.314;2022-11-14T03:47:09;100241.94;;;11.32;100.00
29935;BME280;19905;53.370;-6.314;2022-11-14T03:49:37;100238.91;;;11.36;100.00
29935;BME280;19905;53.370;-6.314;2022-11-14T03:52:07;100241.00;;;11.42;100.00
29935;BME280;19905;53.370;-6.314;2022-11-14T03:54:35;100240.69;;;11.36;100.00
29935;BME280;19905;53.370;-6.314;2022-11-14T03:57:07;100243.28;;;11.26;100.00
29935;BME280;19905;53.370;-6.314;2022-11-14T03:59:35;100247.78;;;11.35;100.00
29935;BME280;19905;53.370;-6.314;2022-11-14T04:02:04;100242.50;;;11.35;100.00
29935;BME280;19905;53.370;-6.314;2022-11-14T04:04:34;100240.81;;;11.34;100.00
29935;BME280;19905;53.370;-6.314;2022-11-14T04:07:13;100244.63;;;11.41;100.00
29935;BME280;19905;53.370;-6.314;2022-11-14T04:09:42;100241.97;;;11.41;100.00
29935;BME280;19905;53.370;-6.314;2022-11-14T04:12:13;100233.75;;;11.44;100.00
29935;BME280;19905;53.370;-6.314;2022-11-14T04:14:42;100232.34;;;11.40;100.00
29935;BME280;19905;53.370;-6.314;2022-11-14T04:17:11;100239.03;;;11.35;100.00
29935;BME280;19905;53.370;-6.314;2022-11-14T04:19:41;100233.03;;;11.33;100.00
29935;BME280;19905;53.370;-6.314;2022-11-14T04:22:10;100234.13;;;11.30;100.00
29935;BME280;19905;53.370;-6.314;2022-11-14T04:24:38;100237.06;;;11.27;100.00
29935;BME280;19905;53.370;-6.314;2022-11-14T04:27:07;100230.38;;;11.23;100.00
29935;BME280;19905;53.370;-6.314;2022-11-14T04:29:35;100228.41;;;11.25;100.00
29935;BME280;19905;53.370;-6.314;2022-11-14T04:32:04;100233.41;;;11.18;100.00
29935;BME280;19905;53.370;-6.314;2022-11-14T04:34:33;100240.19;;;11.11;100.00
29935;BME280;19905;53.370;-6.314;2022-11-14T04:37:03;100233.63;;;11.06;100.00
29935;BME280;19905;53.370;-6.314;2022-11-14T04:39:32;100234.00;;;11.01;100.00
29935;BME280;19905;53.370;-6.314;2022-11-14T04:42:03;100239.44;;;11.00;100.00
29935;BME280;19905;53.370;-6.314;2022-11-14T04:44:33;100239.44;;;11.00;100.00
29935;BME280;19905;53.370;-6.314;2022-11-14T04:47:02;100230.66;;;10.99;100.00
29935;BME280;19905;53.370;-6.314;2022-11-14T04:49:31;100235.09;;;10.99;100.00
29935;BME280;19905;53.370;-6.314;2022-11-14T04:52:00;100223.69;;;10.98;100.00
29935;BME280;19905;53.370;-6.314;2022-11-14T04:54:31;100226.47;;;10.97;100.00
29935;BME280;19905;53.370;-6.314;2022-11-14T04:57:00;100218.81;;;10.93;100.00
29935;BME280;19905;53.370;-6.314;2022-11-14T04:59:33;100216.44;;;10.90;100.00
29935;BME280;19905;53.370;-6.314;2022-11-14T05:02:02;100209.34;;;10.91;100.00
29935;BME280;19905;53.370;-6.314;2022-11-14T05:04:32;100205.28;;;10.87;100.00
29935;BME280;19905;53.370;-6.314;2022-11-14T05:07:00;100213.91;;;10.89;100.00
29935;BME280;19905;53.370;-6.314;2022-11-14T05:09:31;100207.78;;;10.88;100.00
29935;BME280;19905;53.370;-6.314;2022-11-14T05:12:00;100205.28;;;10.87;100.00
29935;BME280;19905;53.370;-6.314;2022-11-14T05:14:30;100205.53;;;10.84;100.00
29935;BME280;19905;53.370;-6.314;2022-11-14T05:16:59;100207.50;;;10.82;100.00
29935;BME280;19905;53.370;-6.314;2022-11-14T05:19:29;100204.03;;;10.81;100.00
29935;BME280;19905;53.370;-6.314;2022-11-14T05:21:57;100207.06;;;10.77;100.00
29935;BME280;19905;53.370;-6.314;2022-11-14T05:24:34;100211.88;;;10.72;100.00
29935;BME280;19905;53.370;-6.314;2022-11-14T05:27:03;100215.47;;;10.71;100.00
29935;BME280;19905;53.370;-6.314;2022-11-14T05:29:32;100207.94;;;10.66;100.00
29935;BME280;19905;53.370;-6.314;2022-11-14T05:32:51;100206.88;;;10.68;100.00
29935;BME280;19905;53.370;-6.314;2022-11-14T05:36:24;100203.63;;;10.65;100.00
29935;BME280;19905;53.370;-6.314;2022-11-14T05:38:50;100205.31;;;10.66;100.00
29935;BME280;19905;53.370;-6.314;2022-11-14T05:41:25;100194.88;;;10.64;100.00
29935;BME280;19905;53.370;-6.314;2022-11-14T05:43:55;100194.88;;;10.64;100.00
29935;BME280;19905;53.370;-6.314;2022-11-14T05:46:24;100196.56;;;10.65;100.00
29935;BME280;19905;53.370;-6.314;2022-11-14T05:52:34;100185.41;;;10.62;100.00
29935;BME280;19905;53.370;-6.314;2022-11-14T05:55:03;100188.47;;;10.67;100.00
29935;BME280;19905;53.370;-6.314;2022-11-14T05:57:33;100188.63;;;10.65;100.00
29935;BME280;19905;53.370;-6.314;2022-11-14T06:00:30;100184.47;;;10.63;100.00
29935;BME280;19905;53.370;-6.314;2022-11-14T06:03:08;100170.53;;;10.61;100.00
29935;BME280;19905;53.370;-6.314;2022-11-14T06:05:40;100155.25;;;10.64;100.00
29935;BME280;19905;53.370;-6.314;2022-11-14T06:08:12;100157.06;;;10.64;100.00
29935;BME280;19905;53.370;-6.314;2022-11-14T06:10:40;100159.72;;;10.64;100.00
29935;BME280;19905;53.370;-6.314;2022-11-14T06:13:54;100157.19;;;10.62;100.00
29935;BME280;19905;53.370;-6.314;2022-11-14T06:17:13;100147.19;;;10.66;100.00
29935;BME280;19905;53.370;-6.314;2022-11-14T06:20:13;100136.63;;;10.66;100.00
29935;BME280;19905;53.370;-6.314;2022-11-14T06:22:53;100126.66;;;10.69;100.00
29935;BME280;19905;53.370;-6.314;2022-11-14T06:25:22;100121.81;;;10.75;100.00
29935;BME280;19905;53.370;-6.314;2022-11-14T06:29:24;100129.88;;;10.73;100.00
29935;BME280;19905;53.370;-6.314;2022-11-14T06:35:55;100137.84;;;10.62;100.00
29935;BME280;19905;53.370;-6.314;2022-11-14T06:42:30;100130.19;;;10.49;100.00
29935;BME280;19905;53.370;-6.314;2022-11-14T06:45:55;100138.16;;;10.38;100.00
29935;BME280;19905;53.370;-6.314;2022-11-14T06:48:31;100137.56;;;10.34;100.00
29935;BME280;19905;53.370;-6.314;2022-11-14T06:51:11;100145.25;;;10.37;100.00
29935;BME280;19905;53.370;-6.314;2022-11-14T06:53:49;100157.03;;;10.33;100.00
29935;BME280;19905;53.370;-6.314;2022-11-14T06:56:38;100159.91;;;10.30;100.00
29935;BME280;19905;53.370;-6.314;2022-11-14T06:59:44;100159.91;;;10.30;100.00
29935;BME280;19905;53.370;-6.314;2022-11-14T07:02:15;100169.91;;;10.27;100.00
29935;BME280;19905;53.370;-6.314;2022-11-14T07:04:48;100174.31;;;10.26;100.00
29935;BME280;19905;53.370;-6.314;2022-11-14T07:10:48;100184.69;;;10.18;100.00
29935;BME280;19905;53.370;-6.314;2022-11-14T07:13:17;100197.28;;;10.14;100.00
29935;BME280;19905;53.370;-6.314;2022-11-14T07:15:49;100199.34;;;10.11;100.00
29935;BME280;19905;53.370;-6.314;2022-11-14T07:18:19;100200.06;;;10.13;100.00
29935;BME280;19905;53.370;-6.314;2022-11-14T07:20:47;100204.00;;;10.07;100.00
29935;BME280;19905;53.370;-6.314;2022-11-14T07:23:16;100211.56;;;10.12;100.00
29935;BME280;19905;53.370;-6.314;2022-11-14T07:25:50;100203.78;;;10.10;100.00
29935;BME280;19905;53.370;-6.314;2022-11-14T07:28:21;100201.00;;;10.12;100.00
29935;BME280;19905;53.370;-6.314;2022-11-14T07:30:50;100204.16;;;10.06;100.00
29935;BME280;19905;53.370;-6.314;2022-11-14T07:33:20;100210.25;;;10.06;100.00
29935;BME280;19905;53.370;-6.314;2022-11-14T07:35:49;100222.75;;;10.04;100.00
29935;BME280;19905;53.370;-6.314;2022-11-14T07:38:18;100216.50;;;10.05;100.00
29935;BME280;19905;53.370;-6.314;2022-11-14T07:40:53;100217.81;;;10.11;100.00
29935;BME280;19905;53.370;-6.314;2022-11-14T07:43:26;100222.13;;;10.12;100.00
29935;BME280;19905;53.370;-6.314;2022-11-14T07:45:57;100213.81;;;10.16;100.00
29935;BME280;19905;53.370;-6.314;2022-11-14T07:48:26;100225.22;;;10.17;100.00
29935;BME280;19905;53.370;-6.314;2022-11-14T07:50:57;100220.41;;;10.22;100.00
29935;BME280;19905;53.370;-6.314;2022-11-14T07:53:28;100221.88;;;10.15;100.00
29935;BME280;19905;53.370;-6.314;2022-11-14T07:56:02;100218.25;;;10.16;100.00
29935;BME280;19905;53.370;-6.314;2022-11-14T07:58:33;100207.25;;;10.11;100.00
29935;BME280;19905;53.370;-6.314;2022-11-14T08:01:03;100201.84;;;10.12;100.00
29935;BME280;19905;53.370;-6.314;2022-11-14T08:03:34;100208.66;;;10.15;100.00
29935;BME280;19905;53.370;-6.314;2022-11-14T08:06:12;100211.78;;;10.20;100.00
29935;BME280;19905;53.370;-6.314;2022-11-14T08:08:41;100201.34;;;10.18;100.00
29935;BME280;19905;53.370;-6.314;2022-11-14T08:11:12;100201.22;;;10.20;100.00
29935;BME280;19905;53.370;-6.314;2022-11-14T08:14:00;100203.41;;;10.15;100.00
29935;BME280;19905;53.370;-6.314;2022-11-14T08:16:28;100190.66;;;10.20;100.00
29935;BME280;19905;53.370;-6.314;2022-11-14T08:29:19;100178.28;;;10.21;100.00
29935;BME280;19905;53.370;-6.314;2022-11-14T08:31:48;100183.47;;;10.22;100.00
29935;BME280;19905;53.370;-6.314;2022-11-14T08:34:24;100177.09;;;10.25;100.00
29935;BME280;19905;53.370;-6.314;2022-11-14T08:36:57;100168.09;;;10.27;100.00
29935;BME280;19905;53.370;-6.314;2022-11-14T08:39:26;100168.94;;;10.28;100.00
29935;BME280;19905;53.370;-6.314;2022-11-14T08:41:56;100164.34;;;10.30;100.00
29935;BME280;19905;53.370;-6.314;2022-11-14T08:44:26;100164.81;;;10.35;100.00
29935;BME280;19905;53.370;-6.314;2022-11-14T08:46:55;100166.22;;;10.39;100.00
29935;BME280;19905;53.370;-6.314;2022-11-14T08:49:27;100155.41;;;10.42;100.00
29935;BME280;19905;53.370;-6.314;2022-11-14T08:51:56;100156.00;;;10.46;100.00
29935;BME280;19905;53.370;-6.314;2022-11-14T08:54:24;100161.97;;;10.48;100.00
29935;BME280;19905;53.370;-6.314;2022-11-14T08:56:53;100157.53;;;10.48;100.00
29935;BME280;19905;53.370;-6.314;2022-11-14T08:59:22;100160.06;;;10.50;100.00
29935;BME280;19905;53.370;-6.314;2022-11-14T09:01:52;100154.63;;;10.51;100.00
29935;BME280;19905;53.370;-6.314;2022-11-14T09:04:21;100151.16;;;10.51;100.00
29935;BME280;19905;53.370;-6.314;2022-11-14T09:06:51;100144.50;;;10.56;100.00
29935;BME280;19905;53.370;-6.314;2022-11-14T09:09:22;100147.88;;;10.58;100.00
29935;BME280;19905;53.370;-6.314;2022-11-14T09:11:50;100142.59;;;10.58;100.00
29935;BME280;19905;53.370;-6.314;2022-11-14T09:14:24;100146.06;;;10.59;100.00
29935;BME280;19905;53.370;-6.314;2022-11-14T09:16:55;100143.03;;;10.63;100.00
29935;BME280;19905;53.370;-6.314;2022-11-14T09:19:31;100140.69;;;10.70;100.00
29935;BME280;19905;53.370;-6.314;2022-11-14T09:22:00;100139.03;;;10.69;100.00
29935;BME280;19905;53.370;-6.314;2022-11-14T09:24:29;100147.69;;;10.81;100.00
29935;BME280;19905;53.370;-6.314;2022-11-14T09:27:06;100142.25;;;10.73;100.00
29935;BME280;19905;53.370;-6.314;2022-11-14T09:29:34;100138.78;;;10.72;100.00
29935;BME280;19905;53.370;-6.314;2022-11-14T09:32:05;100131.78;;;10.71;100.00
29935;BME280;19905;53.370;-6.314;2022-11-14T09:34:34;100128.50;;;10.79;100.00
29935;BME280;19905;53.370;-6.314;2022-11-14T09:37:03;100127.22;;;10.73;100.00
29935;BME280;19905;53.370;-6.314;2022-11-14T09:39:32;100120.81;;;10.76;100.00
29935;BME280;19905;53.370;-6.314;2022-11-14T09:42:14;100121.41;;;10.79;100.00
29935;BME280;19905;53.370;-6.314;2022-11-14T09:44:55;100126.88;;;10.87;100.00
29935;BME280;19905;53.370;-6.314;2022-11-14T09:47:29;100125.72;;;10.80;100.00
29935;BME280;19905;53.370;-6.314;2022-11-14T09:50:04;100114.31;;;10.80;100.00
29935;BME280;19905;53.370;-6.314;2022-11-14T09:52:38;100116.56;;;10.84;100.00
29935;BME280;19905;53.370;-6.314;2022-11-14T09:55:13;100125.19;;;10.86;100.00
29935;BME280;19905;53.370;-6.314;2022-11-14T09:57:45;100126.72;;;10.89;100.00
29935;BME280;19905;53.370;-6.314;2022-11-14T10:00:15;100131.34;;;10.97;100.00
29935;BME280;19905;53.370;-6.314;2022-11-14T10:02:57;100131.78;;;11.02;100.00
29935;BME280;19905;53.370;-6.314;2022-11-14T10:05:52;100134.72;;;11.08;100.00
29935;BME280;19905;53.370;-6.314;2022-11-14T10:08:43;100123.59;;;11.05;100.00
29935;BME280;19905;53.370;-6.314;2022-11-14T10:11:21;100125.94;;;11.08;100.00
29935;BME280;19905;53.370;-6.314;2022-11-14T10:14:26;100124.03;;;11.10;100.00
29935;BME280;19905;53.370;-6.314;2022-11-14T10:17:08;100123.47;;;11.16;100.00
29935;BME280;19905;53.370;-6.314;2022-11-14T10:19:46;100130.84;;;11.22;100.00
29935;BME280;19905;53.370;-6.314;2022-11-14T10:22:26;100126.56;;;11.31;100.00
29935;BME280;19905;53.370;-6.314;2022-11-14T10:25:18;100125.75;;;11.40;100.00
29935;BME280;19905;53.370;-6.314;2022-11-14T10:27:59;100126.31;;;11.43;100.00
29935;BME280;19905;53.370;-6.314;2022-11-14T10:30:38;100133.25;;;11.44;100.00
29935;BME280;19905;53.370;-6.314;2022-11-14T10:33:20;100130.50;;;11.46;100.00
29935;BME280;19905;53.370;-6.314;2022-11-14T16:07:12;99622.09;;;10.89;100.00
29935;BME280;19905;53.370;-6.314;2022-11-14T16:09:43;99614.75;;;10.83;100.00
29935;BME280;19905;53.370;-6.314;2022-11-14T16:12:13;99615.84;;;10.80;100.00
29935;BME280;19905;53.370;-6.314;2022-11-14T16:14:44;99605.88;;;10.74;100.00
29935;BME280;19905;53.370;-6.314;2022-11-14T16:57:10;99565.03;;;10.12;100.00
29935;BME280;19905;53.370;-6.314;2022-11-14T17:23:20;99526.22;;;9.85;100.00
29935;BME280;19905;53.370;-6.314;2022-11-14T17:25:49;99524.84;;;9.90;100.00
29935;BME280;19905;53.370;-6.314;2022-11-14T17:28:18;99519.25;;;9.93;100.00
29935;BME280;19905;53.370;-6.314;2022-11-14T17:30:46;99497.34;;;9.93;100.00
29935;BME280;19905;53.370;-6.314;2022-11-14T17:33:16;99488.19;;;9.87;100.00
29935;BME280;19905;53.370;-6.314;2022-11-14T17:35:46;99489.03;;;9.88;100.00
29935;BME280;19905;53.370;-6.314;2022-11-14T17:38:15;99490.44;;;9.82;100.00
29935;BME280;19905;53.370;-6.314;2022-11-14T17:40:45;99481.53;;;9.83;100.00
29935;BME280;19905;53.370;-6.314;2022-11-14T17:43:15;99477.91;;;9.84;100.00
29935;BME280;19905;53.370;-6.314;2022-11-14T17:45:52;99480.13;;;9.89;100.00
29935;BME280;19905;53.370;-6.314;2022-11-14T17:48:23;99476.09;;;9.85;100.00
29935;BME280;19905;53.370;-6.314;2022-11-14T17:50:53;99468.19;;;9.85;100.00
29935;BME280;19905;53.370;-6.314;2022-11-14T17:53:21;99467.66;;;9.91;100.00
29935;BME280;19905;53.370;-6.314;2022-11-14T17:55:55;99460.56;;;9.91;100.00
29935;BME280;19905;53.370;-6.314;2022-11-14T17:58:26;99447.78;;;9.97;100.00
29935;BME280;19905;53.370;-6.314;2022-11-14T18:00:57;99431.94;;;9.97;100.00
29935;BME280;19905;53.370;-6.314;2022-11-14T18:03:26;99440.13;;;9.93;100.00
29935;BME280;19905;53.370;-6.314;2022-11-14T18:06:04;99421.00;;;9.91;100.00
29935;BME280;19905;53.370;-6.314;2022-11-14T18:08:34;99417.78;;;9.98;100.00
29935;BME280;19905;53.370;-6.314;2022-11-14T18:11:06;99413.63;;;9.95;100.00
29935;BME280;19905;53.370;-6.314;2022-11-14T18:13:37;99399.31;;;9.98;100.00
29935;BME280;19905;53.370;-6.314;2022-11-14T18:16:07;99395.66;;;10.08;100.00
29935;BME280;19905;53.370;-6.314;2022-11-14T18:18:38;99393.69;;;10.10;100.00
29935;BME280;19905;53.370;-6.314;2022-11-14T18:21:07;99390.38;;;10.08;100.00
29935;BME280;19905;53.370;-6.314;2022-11-14T18:23:35;99375.88;;;10.22;100.00
29935;BME280;19905;53.370;-6.314;2022-11-14T18:26:12;99377.03;;;10.10;100.00
29935;BME280;19905;53.370;-6.314;2022-11-14T18:28:42;99371.88;;;10.18;100.00
29935;BME280;19905;53.370;-6.314;2022-11-14T18:31:10;99360.75;;;10.24;100.00
29935;BME280;19905;53.370;-6.314;2022-11-14T18:33:40;99355.72;;;10.21;100.00
29935;BME280;19905;53.370;-6.314;2022-11-14T18:36:10;99349.63;;;10.21;100.00
29935;BME280;19905;53.370;-6.314;2022-11-14T18:38:40;99347.53;;;10.24;100.00
29935;BME280;19905;53.370;-6.314;2022-11-14T18:41:13;99342.38;;;10.32;100.00
29935;BME280;19905;53.370;-6.314;2022-11-14T18:43:42;99330.22;;;10.39;100.00
29935;BME280;19905;53.370;-6.314;2022-11-14T18:46:13;99325.38;;;10.35;100.00
29935;BME280;19905;53.370;-6.314;2022-11-14T18:48:44;99320.63;;;10.38;100.00
29935;BME280;19905;53.370;-6.314;2022-11-14T18:51:15;99317.72;;;10.41;100.00
29935;BME280;19905;53.370;-6.314;2022-11-14T18:53:45;99330.38;;;10.38;100.00
29935;BME280;19905;53.370;-6.314;2022-11-14T18:56:17;99330.16;;;10.49;100.00
29935;BME280;19905;53.370;-6.314;2022-11-14T18:58:52;99310.78;;;10.40;100.00
29935;BME280;19905;53.370;-6.314;2022-11-14T19:01:26;99316.06;;;10.40;100.00
29935;BME280;19905;53.370;-6.314;2022-11-14T19:03:58;99305.63;;;10.57;100.00
29935;BME280;19905;53.370;-6.314;2022-11-14T19:06:29;99284.13;;;10.52;100.00
29935;BME280;19905;53.370;-6.314;2022-11-14T19:08:58;99281.56;;;10.60;100.00
29935;BME280;19905;53.370;-6.314;2022-11-14T19:11:35;99281.56;;;10.60;100.00
29935;BME280;19905;53.370;-6.314;2022-11-14T19:14:21;99279.84;;;10.68;100.00
29935;BME280;19905;53.370;-6.314;2022-11-14T19:16:49;99269.19;;;10.78;100.00
29935;BME280;19905;53.370;-6.314;2022-11-14T19:19:19;99260.56;;;10.76;100.00
29935;BME280;19905;53.370;-6.314;2022-11-14T19:21:48;99254.22;;;10.87;100.00
29935;BME280;19905;53.370;-6.314;2022-11-14T19:24:17;99259.41;;;10.97;100.00
29935;BME280;19905;53.370;-6.314;2022-11-14T19:26:48;99256.06;;;10.94;100.00
29935;BME280;19905;53.370;-6.314;2022-11-14T19:29:17;99247.47;;;10.92;100.00
29935;BME280;19905;53.370;-6.314;2022-11-14T19:31:45;99250.94;;;10.93;100.00
29935;BME280;19905;53.370;-6.314;2022-11-14T19:34:14;99236.81;;;11.02;100.00
29935;BME280;19905;53.370;-6.314;2022-11-14T19:36:43;99222.59;;;11.03;100.00
29935;BME280;19905;53.370;-6.314;2022-11-14T19:39:25;99209.72;;;11.00;100.00
29935;BME280;19905;53.370;-6.314;2022-11-14T19:41:56;99196.00;;;10.97;100.00
29935;BME280;19905;53.370;-6.314;2022-11-14T19:44:26;99191.25;;;11.08;100.00
29935;BME280;19905;53.370;-6.314;2022-11-14T19:46:56;99163.03;;;11.17;100.00
29935;BME280;19905;53.370;-6.314;2022-11-14T19:49:24;99159.56;;;11.16;100.00
29935;BME280;19905;53.370;-6.314;2022-11-14T19:51:52;99168.63;;;11.06;100.00
29935;BME280;19905;53.370;-6.314;2022-11-14T19:54:22;99156.59;;;11.11;100.00
29935;BME280;19905;53.370;-6.314;2022-11-14T19:56:51;99150.88;;;11.24;100.00
29935;BME280;19905;53.370;-6.314;2022-11-14T19:59:20;99146.25;;;11.34;100.00
29935;BME280;19905;53.370;-6.314;2022-11-14T20:01:51;99154.16;;;11.26;100.00
29935;BME280;19905;53.370;-6.314;2022-11-14T20:04:21;99133.00;;;11.26;100.00
29935;BME280;19905;53.370;-6.314;2022-11-14T20:06:50;99117.84;;;11.28;100.00
29935;BME280;19905;53.370;-6.314;2022-11-14T20:09:20;99107.41;;;11.27;100.00
29935;BME280;19905;53.370;-6.314;2022-11-14T20:11:49;99096.03;;;11.34;100.00